Redcliffe, Australia

3:54 PM AEST on December 08, 2016 (GMT +1000)
margate | | Change Station

Elev 79 ft 27.24 °S, 153.10 °E | Updated 14 seconds ago

Mostly Cloudy
Mostly Cloudy
81.0 °F
Feels Like 85 °F
N
6.0
Wind Variable Wind from ENE

Today
High -- | Low -- °F
--% Chance of Precip.
Yesterday
High -- | Low -- °F
Precip. -- in
Pressure 29.74 in
Visibility 6.2 miles
Clouds Few 2500 ft
Scattered Clouds 14000 ft
Mostly Cloudy 19000 ft
Heat Index 85 °F
Dew Point 70 °F
Humidity 70%
Rainfall 0.00 in
Snow Depth Not available.
4:45 AM 6:33 PM
First Quarter, 60% visible
METAR YBBN 080530Z 01017KT 9999 FEW025 SCT140 BKN190 26/22 Q1007 TEMPO 0730/0830 VRB20G40KT 2000 TSRA BKN012 SCT050CB
Pressure 29.74 in
Visibility 6.2 miles
Clouds Few 2500 ft
Scattered Clouds 14000 ft
Mostly Cloudy 19000 ft
Heat Index 85 °F
Dew Point 70 °F
Humidity 70%
Rainfall 0.00 in
Snow Depth Not available.
4:45 AM 6:33 PM
First Quarter, 60% visible
METAR YBBN 080530Z 01017KT 9999 FEW025 SCT140 BKN190 26/22 Q1007 TEMPO 0730/0830 VRB20G40KT 2000 TSRA BKN012 SCT050CB

10-Day Weather Forecast

×

Almanac

Astronomy

Dec. 08, 2016 Rise Set
Actual Time
Civil Twilight
Nautical Twilight
Astronomical Twilight
Moon
Length of Visible Light
Length of Day
Tomorrow will be .
, % of the Moon is Illuminated

Today's Extremes

Country Highs Country Lows

Community

WunderPhotos

Upload Photos

1,956,259 photos uploaded!

WunderBlog® & News

Nearby

Air Quality

  Air Quality AQ Index Pollutant
Not available.

Snow Depth

Station Depth Elevation

Earthquake Activity

City Distance Mag. Time & Date
Minimum magnitude displayed is 2.5.

Coastal Water Temperatures

Place Temperature

Stations

Nearby Weather Stations

Station Location Temp. Windchill Dew Point Humidity Wind Precip. Elev Updated Type